Time;durP1;ratioP1;P1;durP2;ratioP2;P2;SDS_P1;SDS_P2;PMS_P1;PMS_P2;Temp;Humidity;BMP_temperature;BMP_pressure;BME280_temperature;BME280_humidity;BME280_pressure;Samples;Min_cycle;Max_cycle;Signal;HPM_P1;HPM_P2
2022/01/10 00:02:11;;;;;;;6.55;1.65;;;12.50;88.70;;;;;;5057783;28;20021;-48
2022/01/10 00:04:37;;;;;;;6.55;1.52;;;12.50;88.30;;;;;;5057719;28;20079;-50
2022/01/10 00:07:03;;;;;;;6.75;1.80;;;12.50;88.80;;;;;;5058045;28;20114;-49
2022/01/10 00:09:29;;;;;;;6.93;2.28;;;12.50;89.00;;;;;;5057676;28;20013;-49
2022/01/10 00:11:55;;;;;;;6.57;2.08;;;12.50;88.80;;;;;;5058114;28;20471;-48
2022/01/10 00:14:21;;;;;;;8.70;2.25;;;12.60;88.90;;;;;;5057559;28;20104;-50
2022/01/10 00:16:46;;;;;;;6.28;1.83;;;12.50;88.60;;;;;;5057683;28;20381;-48
2022/01/10 00:19:12;;;;;;;8.13;1.90;;;12.50;88.90;;;;;;5057597;28;20029;-49
2022/01/10 00:21:38;;;;;;;10.85;3.08;;;12.60;89.10;;;;;;5057813;28;20035;-48
2022/01/10 00:24:04;;;;;;;6.03;1.65;;;12.60;89.20;;;;;;5057572;28;20014;-49
2022/01/10 00:26:30;;;;;;;5.85;1.70;;;12.50;89.40;;;;;;5057509;28;20021;-51
2022/01/10 00:28:56;;;;;;;4.40;1.40;;;12.50;88.90;;;;;;5057785;28;21153;-50
2022/01/10 00:31:22;;;;;;;5.45;1.60;;;12.50;88.80;;;;;;5057652;28;20039;-49
2022/01/10 00:33:48;;;;;;;6.53;1.40;;;12.60;89.10;;;;;;5057665;28;20025;-49
2022/01/10 00:36:14;;;;;;;8.35;1.85;;;12.60;89.00;;;;;;5057973;28;20086;-49
2022/01/10 00:38:39;;;;;;;7.90;2.22;;;12.60;88.80;;;;;;5057399;28;20032;-48
2022/01/10 00:41:05;;;;;;;7.55;2.15;;;12.60;88.70;;;;;;5057593;28;20029;-49
2022/01/10 00:43:39;;;;;;;7.03;1.83;;;12.60;88.60;;;;;;5061613;28;20025;-48
2022/01/10 00:46:05;;;;;;;8.95;1.95;;;12.60;88.30;;;;;;5061168;28;20029;-48
2022/01/10 00:48:31;;;;;;;7.95;2.20;;;12.60;88.70;;;;;;5061296;28;20025;-48
2022/01/10 00:50:57;;;;;;;9.70;2.25;;;12.60;88.90;;;;;;5061320;28;20044;-48
2022/01/10 00:53:25;;;;;;;12.45;2.40;;;12.60;89.00;;;;;;5061264;28;20029;-48
2022/01/10 00:55:51;;;;;;;10.27;2.22;;;12.60;89.20;;;;;;5061244;28;20040;-49
2022/01/10 00:58:17;;;;;;;12.40;3.08;;;12.60;88.80;;;;;;5061125;28;21099;-49
2022/01/10 01:00:43;;;;;;;9.48;2.92;;;12.60;88.90;;;;;;5060991;28;20108;-49
2022/01/10 01:03:09;;;;;;;12.80;2.70;;;12.60;88.70;;;;;;5061309;28;20103;-48
2022/01/10 01:05:39;;;;;;;13.23;2.90;;;12.60;89.00;;;;;;5061201;28;20029;-48
2022/01/10 01:08:07;;;;;;;11.10;2.75;;;12.60;88.70;;;;;;5061050;28;20025;-50
2022/01/10 01:26:31;;;;;;;18.08;4.10;;;12.60;89.00;;;;;;5060871;28;20511;-50
2022/01/10 01:28:57;;;;;;;13.32;3.45;;;12.60;89.00;;;;;;5061038;28;20108;-48
2022/01/10 01:31:22;;;;;;;11.30;3.20;;;12.60;88.70;;;;;;5060937;28;20108;-48
2022/01/10 01:33:49;;;;;;;13.10;3.38;;;12.50;88.80;;;;;;5060823;28;20051;-51
2022/01/10 01:36:20;;;;;;;18.00;4.00;;;12.50;88.80;;;;;;5060453;28;20072;-48
2022/01/10 01:38:46;;;;;;;13.27;3.20;;;12.50;88.50;;;;;;5060383;28;20094;-48
2022/01/10 01:41:35;;;;;;;16.52;4.03;;;12.60;88.40;;;;;;5060705;28;20033;-48
2022/01/10 01:43:59;;;;;;;19.67;4.22;;;12.50;88.60;;;;;;5060136;28;20025;-48
2022/01/10 01:46:25;;;;;;;17.35;4.55;;;12.60;89.10;;;;;;5060263;28;20130;-50
2022/01/10 01:48:53;;;;;;;16.75;4.28;;;12.50;88.80;;;;;;5060436;28;20024;-49
2022/01/10 01:51:20;;;;;;;16.48;4.22;;;12.50;88.70;;;;;;5060114;28;20531;-49
2022/01/10 01:53:47;;;;;;;18.88;3.53;;;12.60;88.40;;;;;;5059838;28;20025;-48
2022/01/10 01:56:14;;;;;;;14.98;3.33;;;12.50;88.70;;;;;;5060464;28;20029;-48
2022/01/10 01:58:41;;;;;;;16.02;3.97;;;12.50;88.90;;;;;;5059861;28;20029;-49
2022/01/10 02:01:08;;;;;;;15.43;4.07;;;12.50;88.80;;;;;;5058620;28;20053;-50
2022/01/10 02:03:38;;;;;;;18.40;3.60;;;12.50;89.00;;;;;;5060027;28;20070;-48
2022/01/10 02:06:05;;;;;;;19.55;4.13;;;12.50;89.20;;;;;;5059969;28;20033;-48
2022/01/10 02:08:31;;;;;;;17.45;5.22;;;12.50;89.10;;;;;;5059405;28;20024;-49
2022/01/10 02:10:57;;;;;;;14.95;3.70;;;12.50;88.80;;;;;;5059505;28;20043;-48
2022/01/10 02:13:23;;;;;;;15.32;3.80;;;12.50;88.70;;;;;;5059941;28;20021;-48
2022/01/10 02:15:56;;;;;;;14.10;3.80;;;12.50;88.70;;;;;;5060065;28;20021;-48
2022/01/10 02:18:22;;;;;;;14.35;3.85;;;12.50;88.60;;;;;;5059718;28;20033;-48
2022/01/10 02:20:49;;;;;;;14.40;3.78;;;12.50;88.50;;;;;;5059353;28;20053;-48
2022/01/10 02:23:15;;;;;;;15.02;3.67;;;12.50;89.00;;;;;;5059950;28;20017;-48
2022/01/10 02:25:43;;;;;;;15.75;3.95;;;12.50;89.00;;;;;;5059975;28;20024;-48
2022/01/10 02:28:09;;;;;;;16.10;3.78;;;12.40;88.80;;;;;;5059697;28;20017;-48
2022/01/10 02:30:35;;;;;;;21.00;4.70;;;12.50;88.70;;;;;;5059502;28;20086;-48
2022/01/10 02:33:02;;;;;;;25.23;5.82;;;12.50;88.50;;;;;;5059335;28;20025;-48
2022/01/10 02:35:34;;;;;;;33.28;6.60;;;12.50;88.60;;;;;;5059303;28;20029;-48
2022/01/10 02:38:01;;;;;;;33.58;7.28;;;12.50;88.50;;;;;;5059314;28;20032;-49
2022/01/10 02:40:30;;;;;;;37.17;8.40;;;12.40;88.80;;;;;;5059175;28;20095;-50
2022/01/10 02:42:56;;;;;;;48.22;9.05;;;12.40;88.60;;;;;;5059025;28;20024;-48
2022/01/10 02:45:23;;;;;;;42.42;9.60;;;12.40;88.80;;;;;;5059058;28;20047;-48
2022/01/10 02:47:49;;;;;;;43.40;9.55;;;12.40;88.70;;;;;;5059533;28;20028;-49
2022/01/10 02:50:16;;;;;;;34.50;9.18;;;12.40;88.50;;;;;;5059052;28;20060;-48
2022/01/10 02:52:42;;;;;;;43.17;9.95;;;12.40;88.50;;;;;;5059163;28;20017;-49
2022/01/10 02:55:11;;;;;;;39.45;9.43;;;12.40;88.60;;;;;;5058924;28;20607;-50
2022/01/10 02:57:37;;;;;;;42.50;9.05;;;12.40;88.40;;;;;;5059293;28;20025;-49
2022/01/10 03:00:09;;;;;;;37.47;10.45;;;12.40;88.20;;;;;;5059053;28;20028;-50
2022/01/10 03:02:36;;;;;;;40.53;8.43;;;12.40;87.70;;;;;;5059066;28;20029;-49
2022/01/10 03:05:04;;;;;;;35.22;9.15;;;12.40;88.30;;;;;;5058260;28;20017;-48
2022/01/10 03:07:30;;;;;;;29.33;7.22;;;12.40;87.90;;;;;;5058921;28;20048;-48
2022/01/10 03:09:56;;;;;;;37.90;9.05;;;12.40;88.20;;;;;;5058704;28;20031;-50
2022/01/10 03:12:22;;;;;;;34.42;7.60;;;12.40;88.40;;;;;;5058819;28;20104;-49
2022/01/10 03:14:48;;;;;;;38.78;10.80;;;12.40;88.20;;;;;;5058809;28;20025;-50
2022/01/10 03:17:14;;;;;;;40.88;9.55;;;12.40;88.30;;;;;;5058504;28;20031;-49
2022/01/10 03:19:41;;;;;;;37.28;9.88;;;12.40;88.30;;;;;;5058696;28;20060;-49
2022/01/10 03:22:08;;;;;;;42.85;8.45;;;12.40;88.30;;;;;;5058428;28;20013;-50
2022/01/10 03:24:34;;;;;;;39.40;7.85;;;12.40;88.10;;;;;;5058630;28;20390;-50
2022/01/10 03:27:00;;;;;;;50.58;8.77;;;12.40;88.10;;;;;;5058751;28;20024;-48
2022/01/10 03:29:26;;;;;;;37.40;8.32;;;12.40;88.00;;;;;;5058340;28;20021;-52
2022/01/10 03:31:52;;;;;;;35.10;9.13;;;12.40;88.10;;;;;;5058454;28;20358;-49
2022/01/10 03:34:18;;;;;;;40.35;9.02;;;12.40;87.90;;;;;;5058254;28;20032;-48
2022/01/10 03:36:44;;;;;;;40.67;8.32;;;12.40;88.00;;;;;;5058173;28;20017;-48
2022/01/10 03:39:12;;;;;;;41.85;9.52;;;12.40;88.20;;;;;;5058558;28;20416;-49
2022/01/10 03:41:38;;;;;;;34.63;8.40;;;12.40;88.00;;;;;;5058458;28;20025;-49
2022/01/10 03:44:05;;;;;;;38.38;7.38;;;12.40;87.90;;;;;;5058045;28;20043;-50
2022/01/10 03:46:34;;;;;;;37.97;8.63;;;12.40;87.70;;;;;;5058422;28;20017;-48
2022/01/10 03:49:01;;;;;;;34.15;7.47;;;12.40;87.90;;;;;;5058176;28;20074;-48
2022/01/10 03:51:27;;;;;;;42.92;8.23;;;12.40;87.50;;;;;;5058010;28;20029;-49
2022/01/10 03:53:53;;;;;;;36.58;7.78;;;12.40;87.90;;;;;;5057948;28;20397;-47
2022/01/10 03:56:21;;;;;;;36.63;8.65;;;12.40;88.10;;;;;;5057702;28;20063;-49
2022/01/10 03:58:47;;;;;;;40.58;7.93;;;12.40;87.80;;;;;;5057852;28;20119;-48
2022/01/10 04:01:13;;;;;;;35.47;8.88;;;12.40;87.70;;;;;;5057999;28;20056;-50
2022/01/10 04:03:40;;;;;;;39.13;9.10;;;12.40;87.50;;;;;;5057963;28;20049;-49
2022/01/10 04:06:06;;;;;;;38.88;8.50;;;12.40;87.40;;;;;;5057549;28;20021;-48
2022/01/10 04:08:32;;;;;;;34.40;8.43;;;12.40;87.30;;;;;;5057729;28;20594;-49
2022/01/10 04:10:59;;;;;;;28.25;7.50;;;12.40;87.30;;;;;;5058125;28;20029;-50
2022/01/10 04:13:25;;;;;;;34.95;8.07;;;12.40;87.30;;;;;;5057847;28;20036;-48
2022/01/10 04:15:51;;;;;;;33.85;7.32;;;12.40;87.30;;;;;;5057468;28;20028;-49
2022/01/10 04:18:17;;;;;;;33.08;7.50;;;12.40;87.30;;;;;;5057610;28;20029;-48
2022/01/10 04:20:44;;;;;;;30.88;7.40;;;12.40;87.20;;;;;;5057239;28;20132;-49
2022/01/10 04:23:12;;;;;;;45.05;9.43;;;12.40;87.20;;;;;;5057728;28;20036;-50
2022/01/10 04:25:38;;;;;;;30.85;6.63;;;12.30;87.20;;;;;;5057724;28;20025;-49
2022/01/10 04:28:04;;;;;;;35.10;7.47;;;12.30;87.10;;;;;;5057493;28;20042;-49
2022/01/10 04:30:29;;;;;;;32.28;6.93;;;12.30;86.90;;;;;;5057634;28;20032;-50
2022/01/10 04:32:58;;;;;;;40.63;8.43;;;12.30;86.80;;;;;;5057447;28;20025;-50
2022/01/10 04:35:24;;;;;;;33.35;8.57;;;12.30;86.90;;;;;;5057903;28;20131;-49
2022/01/10 04:37:50;;;;;;;41.53;8.52;;;12.30;86.80;;;;;;5057584;28;20024;-50
2022/01/10 04:40:16;;;;;;;35.42;7.50;;;12.30;86.70;;;;;;5057500;28;20025;-48
2022/01/10 04:42:42;;;;;;;24.92;7.13;;;12.30;86.90;;;;;;5058115;28;20148;-49
2022/01/10 04:45:08;;;;;;;33.08;7.00;;;12.30;86.90;;;;;;5057397;28;20061;-48
2022/01/10 04:47:34;;;;;;;37.47;6.95;;;12.30;87.10;;;;;;5057233;28;20017;-48
2022/01/10 04:52:27;;;;;;;29.17;6.50;;;12.20;87.10;;;;;;5057516;28;20025;-48
2022/01/10 04:54:53;;;;;;;29.27;7.07;;;12.20;86.90;;;;;;5057402;28;20035;-50
2022/01/10 04:57:19;;;;;;;31.63;6.88;;;12.30;86.80;;;;;;5057804;28;20025;-48
2022/01/10 04:59:44;;;;;;;32.75;6.78;;;12.30;87.00;;;;;;5057603;28;20435;-48
2022/01/10 05:02:11;;;;;;;31.55;6.05;;;12.30;86.90;;;;;;5057189;28;20385;-49
2022/01/10 05:04:37;;;;;;;32.10;6.28;;;12.30;86.90;;;;;;5057220;28;20031;-50
2022/01/10 05:07:03;;;;;;;30.15;5.85;;;12.30;87.00;;;;;;5057354;28;20024;-49
2022/01/10 05:09:29;;;;;;;31.02;7.53;;;12.30;87.00;;;;;;5057474;28;20021;-50
2022/01/10 05:11:55;;;;;;;22.63;5.88;;;12.30;86.90;;;;;;5057266;28;20020;-50
2022/01/10 05:14:21;;;;;;;32.58;7.53;;;12.30;86.70;;;;;;5057043;28;20046;-48
2022/01/10 05:16:47;;;;;;;22.92;5.75;;;12.30;87.00;;;;;;5057308;28;20013;-49
2022/01/10 05:19:13;;;;;;;29.73;6.88;;;12.30;86.80;;;;;;5057027;28;20055;-50
2022/01/10 05:21:39;;;;;;;27.35;6.10;;;12.30;86.80;;;;;;5057107;28;20065;-48
2022/01/10 05:24:05;;;;;;;26.38;5.55;;;12.30;86.70;;;;;;5056903;28;20634;-49
2022/01/10 05:26:31;;;;;;;27.75;6.00;;;12.40;86.60;;;;;;5057028;28;20025;-50
2022/01/10 05:28:57;;;;;;;24.05;5.43;;;12.30;86.60;;;;;;5060266;28;20025;-48
2022/01/10 05:31:23;;;;;;;24.13;5.35;;;12.30;86.70;;;;;;5060806;28;20052;-49
2022/01/10 05:33:49;;;;;;;18.48;4.75;;;12.30;86.80;;;;;;5060488;28;20496;-48
2022/01/10 05:36:15;;;;;;;19.08;4.47;;;12.30;86.90;;;;;;5060977;28;20017;-50
2022/01/10 05:38:41;;;;;;;22.40;5.45;;;12.30;86.80;;;;;;5060798;28;20526;-49
2022/01/10 05:41:07;;;;;;;24.63;4.20;;;12.40;86.90;;;;;;5060331;28;20028;-48
2022/01/10 05:43:32;;;;;;;27.50;5.63;;;12.30;86.70;;;;;;5060332;28;20056;-48
2022/01/10 05:45:58;;;;;;;20.10;4.70;;;12.40;86.60;;;;;;5060137;28;20025;-49
2022/01/10 05:48:25;;;;;;;21.05;3.55;;;12.30;86.70;;;;;;5060875;28;20029;-48
2022/01/10 05:50:55;;;;;;;20.00;4.22;;;12.40;86.70;;;;;;5060469;28;20025;-48
2022/01/10 05:53:21;;;;;;;21.83;5.00;;;12.30;86.70;;;;;;5060130;28;20473;-48
2022/01/10 05:55:47;;;;;;;19.70;4.35;;;12.30;86.60;;;;;;5060440;28;20025;-50
2022/01/10 05:58:14;;;;;;;21.55;4.60;;;12.30;86.50;;;;;;5060268;28;20033;-48
2022/01/10 06:00:40;;;;;;;16.75;4.32;;;12.20;86.50;;;;;;5059600;28;20485;-49
2022/01/10 06:03:06;;;;;;;18.50;3.88;;;12.20;86.50;;;;;;5059965;28;20095;-49
2022/01/10 06:05:32;;;;;;;19.42;3.50;;;12.10;86.40;;;;;;5059741;28;20427;-49
2022/01/10 06:08:02;;;;;;;17.05;3.80;;;12.10;86.50;;;;;;5060085;28;20025;-48
2022/01/10 06:10:29;;;;;;;14.70;3.00;;;12.00;86.70;;;;;;5060036;28;20028;-48
2022/01/10 06:12:55;;;;;;;14.70;3.20;;;12.00;86.70;;;;;;5059788;28;20551;-50
2022/01/10 06:15:22;;;;;;;19.30;3.90;;;12.00;86.90;;;;;;5059827;28;20028;-50
2022/01/10 06:17:48;;;;;;;15.88;4.35;;;12.00;86.90;;;;;;5060280;28;20028;-48
2022/01/10 06:20:15;;;;;;;15.35;3.20;;;12.00;87.10;;;;;;5059573;28;20126;-48
2022/01/10 06:22:41;;;;;;;16.95;3.70;;;12.00;87.20;;;;;;5059615;28;20528;-48
2022/01/10 06:25:08;;;;;;;14.18;3.63;;;12.00;87.40;;;;;;5059739;28;20053;-49
2022/01/10 06:27:34;;;;;;;16.08;3.15;;;12.00;87.00;;;;;;5059483;28;20032;-48
2022/01/10 06:30:00;;;;;;;13.57;3.33;;;12.00;87.00;;;;;;5059616;28;20496;-48
2022/01/10 06:32:26;;;;;;;17.42;4.18;;;12.00;86.90;;;;;;5059422;28;20028;-48
2022/01/10 06:34:52;;;;;;;18.25;4.25;;;12.00;86.70;;;;;;5059167;28;20150;-48
2022/01/10 06:37:19;;;;;;;18.10;4.22;;;12.00;86.90;;;;;;5059266;28;20457;-49
2022/01/10 06:39:45;;;;;;;15.70;3.20;;;12.00;87.00;;;;;;5059296;28;20376;-48
2022/01/10 06:42:11;;;;;;;17.75;3.70;;;12.00;87.20;;;;;;5059479;28;20017;-50
2022/01/10 06:44:37;;;;;;;12.40;3.00;;;12.00;87.00;;;;;;5059378;28;20028;-48
2022/01/10 06:47:04;;;;;;;17.20;3.22;;;12.00;87.10;;;;;;5058919;28;20025;-48
2022/01/10 06:49:29;;;;;;;17.98;3.85;;;12.10;86.90;;;;;;5059305;28;20070;-48
2022/01/10 06:51:56;;;;;;;13.48;3.20;;;12.10;87.20;;;;;;5059135;28;20024;-49
2022/01/10 06:54:22;;;;;;;12.10;2.45;;;12.10;87.00;;;;;;5059583;28;20025;-50
2022/01/10 06:56:48;;;;;;;19.00;3.22;;;12.10;86.90;;;;;;5059147;28;20031;-48
2022/01/10 06:59:13;;;;;;;16.52;3.15;;;12.10;87.00;;;;;;5059086;28;20028;-49
2022/01/10 07:01:39;;;;;;;16.05;4.00;;;12.10;87.00;;;;;;5058948;28;20033;-48
2022/01/10 07:04:05;;;;;;;20.60;4.30;;;12.10;86.90;;;;;;5058794;28;20020;-48
2022/01/10 07:06:31;;;;;;;14.75;3.60;;;12.20;86.60;;;;;;5058803;28;20028;-50
2022/01/10 07:08:57;;;;;;;16.13;3.78;;;12.20;86.80;;;;;;5058940;28;20033;-51
2022/01/10 07:11:22;;;;;;;17.35;3.80;;;12.20;86.60;;;;;;5058675;28;20021;-48
2022/01/10 07:13:48;;;;;;;19.02;4.15;;;12.20;86.80;;;;;;5058791;28;20029;-49
2022/01/10 07:16:14;;;;;;;17.30;4.43;;;12.20;86.90;;;;;;5057986;28;20029;-51
2022/01/10 07:18:40;;;;;;;15.70;4.05;;;12.20;87.00;;;;;;5057936;28;20025;-49
2022/01/10 07:21:07;;;;;;;18.75;4.85;;;12.20;86.80;;;;;;5057622;28;20075;-52
2022/01/10 07:23:33;;;;;;;17.92;4.28;;;12.20;86.70;;;;;;5056538;28;20075;-49
2022/01/10 07:25:58;;;;;;;23.75;5.15;;;12.30;86.50;;;;;;5057677;28;20029;-51
2022/01/10 07:28:24;;;;;;;25.05;5.32;;;12.30;86.60;;;;;;5057802;28;20021;-51
2022/01/10 07:30:50;;;;;;;21.92;4.85;;;12.30;86.80;;;;;;5057573;28;20037;-48
2022/01/10 07:33:17;;;;;;;20.45;5.28;;;12.30;86.90;;;;;;5057929;28;20044;-50
2022/01/10 07:35:43;;;;;;;21.23;5.05;;;12.30;86.80;;;;;;5057827;28;20040;-49
2022/01/10 07:38:08;;;;;;;30.02;5.55;;;12.30;86.70;;;;;;5057586;28;20021;-50
2022/01/10 07:40:34;;;;;;;21.83;5.30;;;12.30;86.50;;;;;;5057440;28;20021;-52
2022/01/10 07:43:00;;;;;;;20.33;5.28;;;12.30;86.50;;;;;;5057558;28;20423;-49
2022/01/10 07:45:26;;;;;;;20.17;4.75;;;12.30;86.60;;;;;;5057580;28;20419;-50
2022/01/10 07:47:52;;;;;;;19.23;5.05;;;12.30;86.40;;;;;;5057684;28;20045;-54
2022/01/10 07:50:18;;;;;;;19.98;5.28;;;12.30;86.50;;;;;;5056840;28;20041;-49
2022/01/10 07:52:43;;;;;;;22.52;4.97;;;12.30;86.40;;;;;;5057610;28;20033;-50
2022/01/10 07:55:10;;;;;;;19.05;5.30;;;12.30;86.40;;;;;;5057621;28;20029;-48
2022/01/10 07:57:37;;;;;;;24.08;4.68;;;12.30;86.40;;;;;;5057734;28;20025;-52
2022/01/10 08:00:04;;;;;;;20.17;5.32;;;12.30;86.70;;;;;;5057524;28;20024;-48
2022/01/10 08:02:30;;;;;;;24.52;5.47;;;12.30;86.30;;;;;;5057231;28;20040;-52
2022/01/10 08:04:56;;;;;;;21.25;5.60;;;12.30;86.30;;;;;;5057465;28;20028;-51
2022/01/10 08:07:22;;;;;;;22.17;5.20;;;12.30;86.40;;;;;;5057289;28;20020;-48
2022/01/10 08:09:47;;;;;;;19.50;4.55;;;12.30;86.40;;;;;;5057552;28;20514;-51
2022/01/10 08:12:13;;;;;;;17.73;4.53;;;12.30;86.30;;;;;;5057243;28;20472;-52
2022/01/10 08:14:39;;;;;;;18.25;5.05;;;12.40;86.30;;;;;;5057724;28;20027;-50
2022/01/10 08:17:05;;;;;;;25.63;5.45;;;12.30;86.30;;;;;;5057614;28;20376;-49
2022/01/10 08:19:33;;;;;;;19.50;4.65;;;12.30;86.30;;;;;;5056949;28;20052;-51
2022/01/10 08:22:00;;;;;;;17.90;5.43;;;12.30;86.30;;;;;;5057275;28;20040;-52
2022/01/10 08:24:26;;;;;;;20.48;4.90;;;12.40;86.40;;;;;;5057106;28;20050;-52
2022/01/10 08:26:53;;;;;;;20.77;4.88;;;12.40;86.30;;;;;;5057664;28;20112;-50
2022/01/10 08:29:19;;;;;;;23.98;5.57;;;12.30;86.30;;;;;;5057428;28;20021;-51
2022/01/10 08:31:45;;;;;;;20.63;4.38;;;12.40;86.40;;;;;;5057084;28;20025;-50
2022/01/10 08:34:12;;;;;;;21.75;5.15;;;12.40;86.20;;;;;;5057368;28;20029;-50
2022/01/10 08:36:38;;;;;;;20.85;4.72;;;12.40;86.30;;;;;;5056973;28;20033;-51
2022/01/10 08:39:05;;;;;;;23.02;4.47;;;12.40;86.20;;;;;;5057229;28;20025;-50
2022/01/10 08:41:32;;;;;;;18.50;4.20;;;12.40;86.10;;;;;;5057090;28;20075;-49
2022/01/10 08:43:58;;;;;;;18.05;4.22;;;12.50;86.00;;;;;;5056969;28;20423;-50
2022/01/10 08:46:24;;;;;;;18.73;4.97;;;12.40;86.40;;;;;;5057173;28;20029;-50
2022/01/10 08:48:51;;;;;;;22.23;4.68;;;12.40;86.00;;;;;;5056730;28;20128;-53
2022/01/10 08:51:17;;;;;;;21.38;4.32;;;12.40;86.00;;;;;;5057107;28;20032;-51
2022/01/10 08:53:43;;;;;;;19.05;4.43;;;12.50;86.00;;;;;;5057099;28;20032;-50
2022/01/10 08:56:09;;;;;;;20.63;4.45;;;12.50;85.90;;;;;;5056834;28;20029;-51
2022/01/10 08:58:35;;;;;;;25.48;5.30;;;12.50;85.80;;;;;;5056699;28;20484;-50
2022/01/10 09:01:03;;;;;;;23.50;4.35;;;12.50;85.80;;;;;;5056970;28;20025;-51
2022/01/10 09:03:29;;;;;;;23.88;4.90;;;12.50;85.90;;;;;;5059335;28;20024;-52
2022/01/10 09:05:55;;;;;;;21.25;4.22;;;12.50;85.80;;;;;;5060647;28;20388;-52
2022/01/10 09:08:27;;;;;;;19.77;4.43;;;12.50;85.80;;;;;;5060647;28;20496;-51
2022/01/10 09:10:56;;;;;;;18.83;4.20;;;12.50;85.90;;;;;;5061030;28;20350;-55
2022/01/10 09:13:22;;;;;;;21.38;4.53;;;12.60;85.90;;;;;;5060710;28;20029;-52
2022/01/10 09:15:47;;;;;;;19.02;4.03;;;12.60;85.90;;;;;;5060248;28;20025;-51
2022/01/10 09:18:14;;;;;;;20.42;4.38;;;12.60;85.90;;;;;;5060603;28;20063;-50
2022/01/10 09:20:41;;;;;;;17.90;4.20;;;12.60;85.90;;;;;;5060476;28;20545;-48
2022/01/10 09:23:07;;;;;;;18.85;4.15;;;12.70;86.00;;;;;;5060351;28;20029;-50
2022/01/10 09:25:33;;;;;;;19.10;4.20;;;12.60;86.00;;;;;;5059779;28;20024;-49
2022/01/10 09:27:59;;;;;;;20.13;3.67;;;12.70;86.10;;;;;;5059265;28;20532;-51
2022/01/10 09:30:25;;;;;;;13.85;3.58;;;12.70;86.00;;;;;;5060533;28;20114;-50
2022/01/10 09:32:53;;;;;;;12.93;3.30;;;12.70;86.10;;;;;;5060468;28;20029;-48
2022/01/10 09:35:19;;;;;;;16.60;3.35;;;12.80;86.10;;;;;;5060686;28;20020;-49
2022/01/10 09:37:45;;;;;;;10.20;2.72;;;12.90;86.20;;;;;;5060499;28;20029;-49
2022/01/10 09:40:11;;;;;;;16.00;2.85;;;13.00;86.10;;;;;;5058853;28;21135;-50
2022/01/10 09:42:38;;;;;;;14.02;3.60;;;13.00;86.00;;;;;;5058310;28;20025;-51
2022/01/10 09:45:06;;;;;;;14.57;3.10;;;13.10;85.60;;;;;;5058314;28;20100;-50
2022/01/10 09:47:32;;;;;;;13.52;2.90;;;13.20;85.70;;;;;;5058204;28;20021;-49
2022/01/10 09:49:58;;;;;;;9.60;2.90;;;13.20;85.30;;;;;;5058391;28;20033;-49
2022/01/10 09:52:24;;;;;;;11.35;2.50;;;13.30;85.20;;;;;;5058334;28;20079;-49
2022/01/10 09:54:53;;;;;;;10.23;2.28;;;13.40;85.10;;;;;;5058963;28;20021;-51
2022/01/10 09:57:22;;;;;;;11.25;2.85;;;13.50;85.20;;;;;;5060280;28;20033;-51
2022/01/10 09:59:48;;;;;;;13.88;2.80;;;13.70;84.90;;;;;;5060064;28;20046;-49
2022/01/10 10:02:17;;;;;;;12.52;2.83;;;13.90;84.90;;;;;;5060015;28;20492;-49
2022/01/10 10:04:44;;;;;;;15.95;3.28;;;14.00;84.30;;;;;;5060339;28;20028;-49
2022/01/10 10:07:11;;;;;;;12.77;3.47;;;14.10;83.20;;;;;;5059914;28;20025;-49
2022/01/10 10:09:37;;;;;;;10.05;2.70;;;14.20;83.50;;;;;;5060053;28;20083;-49
2022/01/10 10:12:04;;;;;;;9.75;2.65;;;14.20;83.30;;;;;;5059841;28;20025;-49
2022/01/10 10:14:31;;;;;;;16.17;3.60;;;14.20;82.90;;;;;;5059819;28;20016;-48
2022/01/10 10:16:58;;;;;;;15.38;3.00;;;14.10;81.60;;;;;;5059754;28;20108;-49
2022/01/10 10:19:27;;;;;;;12.65;2.85;;;14.00;80.90;;;;;;5059770;28;20080;-50
2022/01/10 10:21:55;;;;;;;12.05;3.28;;;13.90;81.40;;;;;;5059581;28;20056;-48
2022/01/10 10:24:21;;;;;;;12.18;3.20;;;13.90;82.10;;;;;;5059613;28;20477;-49
2022/01/10 10:26:48;;;;;;;11.23;2.90;;;13.90;81.80;;;;;;5059729;28;20024;-49
2022/01/10 10:29:17;;;;;;;16.48;3.70;;;13.90;82.20;;;;;;5059509;28;20070;-50
2022/01/10 10:31:53;;;;;;;16.77;3.58;;;13.90;81.90;;;;;;5059585;28;20090;-45
2022/01/10 10:34:21;;;;;;;18.92;3.38;;;13.90;82.30;;;;;;5059680;28;20025;-45
2022/01/10 10:37:03;;;;;;;17.75;3.55;;;13.80;81.60;;;;;;5059559;28;20021;-45
2022/01/10 10:39:31;;;;;;;20.13;3.58;;;13.80;82.00;;;;;;5059348;28;20036;-45
2022/01/10 10:42:00;;;;;;;13.70;4.47;;;13.80;82.10;;;;;;5059182;28;20021;-45
2022/01/10 10:44:26;;;;;;;18.58;3.65;;;13.80;82.00;;;;;;5058044;28;20476;-45
2022/01/10 10:46:52;;;;;;;14.80;4.00;;;13.90;81.90;;;;;;5059361;28;20021;-46
2022/01/10 10:49:20;;;;;;;16.77;3.90;;;14.10;83.20;;;;;;5058640;28;20393;-45
2022/01/10 10:51:50;;;;;;;14.57;3.40;;;14.40;82.00;;;;;;5059011;28;20029;-48
2022/01/10 10:54:17;;;;;;;15.75;3.45;;;14.50;81.30;;;;;;5057891;28;20384;-46
2022/01/10 10:56:44;;;;;;;17.55;3.95;;;14.40;80.40;;;;;;5058596;28;20025;-46
2022/01/10 10:59:14;;;;;;;18.20;3.92;;;14.30;80.80;;;;;;5058320;28;20074;-50
2022/01/10 11:01:41;;;;;;;14.60;3.53;;;14.30;80.50;;;;;;5058642;28;20029;-45
2022/01/10 11:04:09;;;;;;;16.60;3.15;;;14.20;81.10;;;;;;5058598;28;20028;-46
2022/01/10 11:06:36;;;;;;;15.80;4.28;;;14.10;81.50;;;;;;5057212;28;20029;-45
2022/01/10 11:09:06;;;;;;;17.45;3.85;;;14.10;82.80;;;;;;5058051;28;20029;-46
2022/01/10 11:11:33;;;;;;;12.73;3.63;;;14.10;82.30;;;;;;5057836;28;20017;-45
2022/01/10 11:14:00;;;;;;;17.45;4.45;;;14.10;82.40;;;;;;5058090;28;20033;-48
2022/01/10 11:16:28;;;;;;;15.52;3.50;;;14.20;82.50;;;;;;5056674;28;20039;-45
2022/01/10 11:18:54;;;;;;;13.77;3.30;;;14.10;82.90;;;;;;5058186;28;20052;-46
2022/01/10 11:21:23;;;;;;;13.57;3.33;;;14.20;83.20;;;;;;5057561;28;20423;-45
2022/01/10 11:23:50;;;;;;;11.95;2.97;;;14.10;82.50;;;;;;5057880;28;20047;-45
2022/01/10 11:26:17;;;;;;;9.70;2.97;;;14.10;83.10;;;;;;5056944;28;20401;-46
2022/01/10 11:28:52;;;;;;;11.52;2.90;;;14.10;83.00;;;;;;5057798;28;20435;-45
2022/01/10 11:31:27;;;;;;;14.00;2.75;;;14.10;83.10;;;;;;5057856;28;20037;-46
2022/01/10 11:33:55;;;;;;;7.38;2.25;;;14.00;83.40;;;;;;5058104;28;20051;-45
2022/01/10 11:36:24;;;;;;;8.02;2.20;;;14.00;83.50;;;;;;5057708;28;20025;-46
2022/01/10 11:39:08;;;;;;;12.45;2.30;;;14.00;83.70;;;;;;5057889;28;20050;-45
2022/01/10 11:41:34;;;;;;;8.38;2.08;;;14.00;83.30;;;;;;5057744;28;20025;-46
2022/01/10 11:44:11;;;;;;;8.13;2.22;;;14.00;83.80;;;;;;5057623;28;20032;-45
2022/01/10 11:46:48;;;;;;;7.45;2.22;;;14.10;84.00;;;;;;5057718;28;20033;-46
2022/01/10 11:49:15;;;;;;;6.82;1.77;;;14.30;83.80;;;;;;5057315;28;20021;-45
2022/01/10 11:51:50;;;;;;;6.43;1.90;;;14.40;83.10;;;;;;5057653;28;20044;-45
2022/01/10 11:54:19;;;;;;;8.35;1.90;;;14.60;82.90;;;;;;5057460;28;20029;-46
2022/01/10 11:56:48;;;;;;;5.95;1.33;;;14.80;82.10;;;;;;5057382;28;20032;-47
2022/01/10 11:59:19;;;;;;;5.55;1.85;;;14.80;82.20;;;;;;5057488;28;20033;-45
2022/01/10 12:01:57;;;;;;;5.25;1.50;;;14.80;81.60;;;;;;5057213;28;20029;-46
2022/01/10 12:04:24;;;;;;;8.13;1.70;;;14.70;81.90;;;;;;5057431;28;20079;-47
2022/01/10 12:06:52;;;;;;;6.45;1.73;;;14.70;81.70;;;;;;5057439;28;20029;-47
2022/01/10 12:09:18;;;;;;;4.82;1.63;;;14.70;82.20;;;;;;5057451;28;20066;-46
2022/01/10 12:11:46;;;;;;;7.47;1.70;;;14.60;81.10;;;;;;5057150;28;20080;-46
2022/01/10 12:14:13;;;;;;;4.35;1.40;;;14.50;81.60;;;;;;5057230;28;20102;-45
2022/01/10 12:16:39;;;;;;;5.93;1.70;;;14.50;82.10;;;;;;5057115;28;20029;-45
2022/01/10 12:19:06;;;;;;;6.80;1.80;;;14.50;82.30;;;;;;5057098;28;20442;-47
2022/01/10 12:21:32;;;;;;;4.70;1.40;;;14.60;82.00;;;;;;5057213;28;20100;-46
2022/01/10 12:23:59;;;;;;;5.05;1.95;;;14.70;81.70;;;;;;5056998;28;20549;-46
2022/01/10 12:26:26;;;;;;;6.75;1.85;;;14.80;82.40;;;;;;5057156;28;20043;-47
2022/01/10 12:28:54;;;;;;;5.38;1.48;;;14.90;82.60;;;;;;5056004;28;20021;-47
2022/01/10 12:31:22;;;;;;;8.32;1.92;;;15.00;81.00;;;;;;5057114;28;20025;-45
2022/01/10 12:33:50;;;;;;;7.50;2.03;;;15.00;81.10;;;;;;5056733;28;20036;-46
2022/01/10 12:36:20;;;;;;;5.82;1.52;;;14.90;80.40;;;;;;5057085;28;20025;-48
2022/01/10 12:38:58;;;;;;;5.75;1.73;;;14.90;81.40;;;;;;5059810;28;20036;-45
2022/01/10 12:41:24;;;;;;;6.70;1.80;;;14.80;81.20;;;;;;5060803;28;20025;-45
2022/01/10 12:43:50;;;;;;;8.75;1.90;;;14.80;81.00;;;;;;5061744;28;20411;-45
2022/01/10 12:46:20;;;;;;;4.18;1.33;;;14.80;81.60;;;;;;5061536;28;20039;-45
2022/01/10 12:48:49;;;;;;;6.22;1.50;;;14.80;80.90;;;;;;5061644;28;20431;-45
2022/01/10 12:51:17;;;;;;;5.18;1.40;;;14.80;81.00;;;;;;5061210;28;20511;-44
2022/01/10 12:53:47;;;;;;;6.15;1.20;;;14.70;81.60;;;;;;5060380;28;20087;-45
2022/01/10 12:56:16;;;;;;;8.57;1.65;;;14.70;81.80;;;;;;5059182;28;20017;-45